createdAt,value
2018-10-12T00:04:36.284Z,22.9
2018-10-12T00:14:35.510Z,22.9
2018-10-12T00:24:34.730Z,22.8
2018-10-12T00:34:33.962Z,22.8
2018-10-12T00:44:33.172Z,22.8
2018-10-12T00:54:32.394Z,22.8
2018-10-12T01:04:31.619Z,22.8
2018-10-12T01:14:30.840Z,22.8
2018-10-12T01:24:30.067Z,22.8
2018-10-12T01:34:29.286Z,22.8
2018-10-12T01:44:28.513Z,22.8
2018-10-12T01:54:27.730Z,22.8
2018-10-12T02:04:26.953Z,22.8
2018-10-12T02:14:26.181Z,22.7
2018-10-12T02:24:25.400Z,22.7
2018-10-12T02:34:24.626Z,22.7
2018-10-12T02:44:23.850Z,22.7
2018-10-12T02:54:23.074Z,22.7
2018-10-12T03:04:22.289Z,22.7
2018-10-12T03:14:21.518Z,22.7
2018-10-12T03:24:20.734Z,22.7
2018-10-12T03:34:19.958Z,22.8
2018-10-12T03:44:19.186Z,22.8
2018-10-12T03:54:18.411Z,22.8
2018-10-12T04:04:17.635Z,22.8
2018-10-12T04:14:16.855Z,22.8
2018-10-12T04:24:16.084Z,22.8
2018-10-12T04:34:15.306Z,22.7
2018-10-12T04:44:14.533Z,22.7
2018-10-12T04:54:13.759Z,22.6
2018-10-12T05:04:12.987Z,22.6
2018-10-12T05:14:12.206Z,22.6
2018-10-12T05:24:11.487Z,22.6
2018-10-12T05:34:10.654Z,22.6
2018-10-12T05:44:09.879Z,22.8
2018-10-12T05:54:09.099Z,22.9
2018-10-12T06:04:08.318Z,23.1
2018-10-12T06:14:07.540Z,23.4
2018-10-12T06:24:06.762Z,23.8
2018-10-12T06:34:05.991Z,24.1
2018-10-12T06:44:05.221Z,24.3
2018-10-12T06:54:04.500Z,24.4
2018-10-12T07:04:03.660Z,24.6
2018-10-12T07:14:02.876Z,24.9
2018-10-12T07:24:02.154Z,25.1
2018-10-12T07:34:01.326Z,25.4
2018-10-12T07:44:00.548Z,25.7
2018-10-12T07:53:59.770Z,25.9
2018-10-12T08:03:58.991Z,26.2
2018-10-12T08:13:58.351Z,26.4
2018-10-12T08:23:57.440Z,26.5
2018-10-12T08:33:56.654Z,26.6
2018-10-12T15:09:33.583Z,23.8
2018-10-12T15:19:32.805Z,23.8
2018-10-12T15:29:32.028Z,23.7
2018-10-12T15:39:31.251Z,23.6
2018-10-12T15:49:30.527Z,23.6
2018-10-12T15:59:29.701Z,23.6
2018-10-12T16:09:28.976Z,23.6
2018-10-12T16:19:28.221Z,23.6
2018-10-12T16:29:27.515Z,23.6
2018-10-12T16:39:26.816Z,23.6
2018-10-12T16:49:26.116Z,23.6
2018-10-12T16:59:25.411Z,23.5
2018-10-12T17:09:24.722Z,23.5
2018-10-12T17:19:23.900Z,23.4
2018-10-12T17:29:23.124Z,23.4
2018-10-12T17:39:22.358Z,23.5
2018-10-12T17:49:21.582Z,23.6
2018-10-12T17:59:20.802Z,23.6
2018-10-12T18:09:20.028Z,23.6
2018-10-12T18:19:19.257Z,23.6
2018-10-12T18:29:18.480Z,23.6
2018-10-12T18:39:17.711Z,23.6
2018-10-12T18:49:16.941Z,23.6
2018-10-12T18:59:16.151Z,23.6
2018-10-12T19:09:15.374Z,23.7
2018-10-12T19:19:14.596Z,23.7
2018-10-12T19:29:13.823Z,23.6
2018-10-12T19:39:13.048Z,23.6
2018-10-12T19:49:12.276Z,23.5
2018-10-12T19:59:11.543Z,23.5
2018-10-12T20:09:10.724Z,23.5
2018-10-12T20:19:09.951Z,23.4
2018-10-12T20:29:09.173Z,23.4
2018-10-12T20:39:08.464Z,23.4
2018-10-12T20:49:07.620Z,23.3
2018-10-12T20:59:06.844Z,23.3
2018-10-12T21:09:06.067Z,23.3
2018-10-12T21:19:05.293Z,23.2
2018-10-12T21:29:04.513Z,23.1
2018-10-12T21:39:03.738Z,23.1
2018-10-12T21:49:02.969Z,23.1
2018-10-12T21:59:02.182Z,23
2018-10-12T22:09:01.405Z,23
2018-10-12T22:19:00.702Z,23
2018-10-12T22:28:59.854Z,22.9
2018-10-12T22:38:59.073Z,22.9
2018-10-12T22:48:58.297Z,22.9
2018-10-12T22:58:57.528Z,22.9
2018-10-12T23:08:56.744Z,22.9
2018-10-12T23:18:55.967Z,22.9
2018-10-12T23:28:55.192Z,22.8
2018-10-12T23:38:54.413Z,22.8
2018-10-12T23:48:53.629Z,22.8
2018-10-12T23:58:52.855Z,22.8
